Airfield :
LOGIN :

Register | Disclaimer

   EN    FR    IT 

 










Legend :    VFR   Marginal VFR   IFR   Intensive IFR   Very Intensive IFR
Visi :
Ceiling :
>= 8 km
>= 3000ft
5 to 8 km
1000 to 3000 ft
1500m to 5 km
500 to 1000 ft
800 to 1500m
200 to 500 ft
< 800m
< 200 ft
Symbols :   Thunderstorms  Fog  Heavy snow  Heavy precipitations  Wind > 20 kt
SIGMETs :     Misc.  Thunderstorms  Icing  Turbulence  Mountain Waves  Volcanic Ashes







- Airport Elevation : 74 ft
- IATA code : NDZ


ETMN - Cuxhaven Nordholz Sea AB

CURRENT METAR :
  • 171820Z 32015KT 9999 FEW011 SCT020 BKN140 02/00 Q1000 BLU BLU TEMPO GRN

EXPIRED METARs :
  • 171807Z 27010KT 9999 SCT011 BKN020 02/00 Q1000 WHT BLU TEMPO GRN
  • 171720Z 30005KT 9999 FEW013CB SCT070 01/M01 Q0999 BLU+BLU TEMPO GRN
  • 171658Z 36009KT 8000 FEW007 FEW013CB BKN050 01/M01 Q0998 BLU BLU TEMPO GRN
  • 171641Z 34018KT 7000 -SHSN SCT007 BKN035 01/M00 Q0998 WHT BLU TEMPO GRN
  • 171625Z 34018KT 5000 -SHSN BR BKN007 01/M00 Q0998 GRN BLU TEMPO YLO
  • 171612Z 32021KT 1600 R26/2800D SHSNRA BR SCT008 BKN010CB 01/M00 Q0998 YLO BLU TEMPO YLO
  • 171559Z 27012G24KT 3000 SHRAGS BR BKN012TCU BKN050 03/00 Q0997 YLO BLU TEMPO YLO

TAF TAF ETMN
Valid from the 17 at 18:00 until the 18 at 03:00 UTC


171735Z 1718/1803 34015G25KT 9999 NSW SCT020 SCT040
TEMPO 1718/1720 36020G35KT 2000 SHSN BKN005 BKN010CB
TEMPO 1720/1803 36018G28KT 3000 SHSN BKN005 BKN010CB
PROB30 1718/1722 VRB20G30KT 1000 TSGSSN BKN005 BKN010CB CANCEL 1950
No reported NOTAMs for that airfield.



MET'MAP, your aeronautical weather chart ! - Copyright ORBIFLY December 2007 - Disclaimer

ORBIFLY MET'MAP TEAM :

Programming & Development : Alexandra Zaïnal
Concept & Development : Baudouin d'Aumeries
Co-Development & Prog : Marc-Olivier Méhu
Technical & hardware support : Manuel Goepfert

Contact : metmap@orbifly.com




SOURCES & CREDITS :

   NOAA